< < Back
Terminal Aerodrome Forecast


Current Version              Previous Versions:   1  2  3  4  5  6  7  8  9  

Terminal Aerodrome Forecast

942
FTUS44 KHUN 270526
TAFHSV
TAF
KHSV 270526Z 2706/2806 16006KT P6SM FEW070 SCT250
     FM271000 15004KT 5SM BR SCT008
     FM271300 17004KT P6SM SCT015
     FM271600 19006KT P6SM BKN025
     FM271800 20008KT P6SM VCTS SCT035CB
     FM280200 18002KT P6SM BKN250=

Latest METAR

935
SAUS80 KWBC 271300
MTRHSV
METAR KHSV 271253Z 19005KT 7SM OVC007 22/19 A3020 RMK AO2 CIG 007V010
SLP221 T02220194


USA.gov is the U.S. government's official web portal to all federal, state and local government web resources and services.